sensor_id;sensor_type;location;lat;lon;timestamp;temperature;humidity
15947;DHT22;8072;52.554;7.966;2023-05-07T00:00:10;12.00;99.90
15947;DHT22;8072;52.554;7.966;2023-05-07T00:02:36;12.00;99.90
15947;DHT22;8072;52.554;7.966;2023-05-07T00:05:03;12.00;99.90
15947;DHT22;8072;52.554;7.966;2023-05-07T00:07:29;11.90;99.90
15947;DHT22;8072;52.554;7.966;2023-05-07T00:09:55;11.90;99.90
15947;DHT22;8072;52.554;7.966;2023-05-07T00:12:20;11.90;99.90
15947;DHT22;8072;52.554;7.966;2023-05-07T00:14:46;11.90;99.90
15947;DHT22;8072;52.554;7.966;2023-05-07T00:17:12;11.90;99.90
15947;DHT22;8072;52.554;7.966;2023-05-07T00:19:38;11.90;99.90
15947;DHT22;8072;52.554;7.966;2023-05-07T00:22:03;11.90;99.90
15947;DHT22;8072;52.554;7.966;2023-05-07T00:24:29;11.80;99.90
15947;DHT22;8072;52.554;7.966;2023-05-07T00:26:55;11.80;99.90
15947;DHT22;8072;52.554;7.966;2023-05-07T00:29:20;11.80;99.90
15947;DHT22;8072;52.554;7.966;2023-05-07T00:31:46;11.80;99.90
15947;DHT22;8072;52.554;7.966;2023-05-07T00:34:12;11.80;99.90
15947;DHT22;8072;52.554;7.966;2023-05-07T00:36:38;11.80;99.90
15947;DHT22;8072;52.554;7.966;2023-05-07T00:39:03;11.80;99.90
15947;DHT22;8072;52.554;7.966;2023-05-07T00:41:30;11.70;99.90
15947;DHT22;8072;52.554;7.966;2023-05-07T00:43:58;11.70;99.90
15947;DHT22;8072;52.554;7.966;2023-05-07T00:46:24;11.70;99.90
15947;DHT22;8072;52.554;7.966;2023-05-07T00:48:51;11.70;99.90
15947;DHT22;8072;52.554;7.966;2023-05-07T00:51:17;11.70;99.90
15947;DHT22;8072;52.554;7.966;2023-05-07T00:53:45;11.70;99.90
15947;DHT22;8072;52.554;7.966;2023-05-07T00:56:12;11.60;99.90
15947;DHT22;8072;52.554;7.966;2023-05-07T00:58:38;11.60;99.90
15947;DHT22;8072;52.554;7.966;2023-05-07T01:01:04;11.70;99.90
15947;DHT22;8072;52.554;7.966;2023-05-07T01:03:30;11.60;99.90
15947;DHT22;8072;52.554;7.966;2023-05-07T01:05:57;11.60;99.90
15947;DHT22;8072;52.554;7.966;2023-05-07T01:08:25;11.60;99.90
15947;DHT22;8072;52.554;7.966;2023-05-07T01:10:55;11.60;99.90
15947;DHT22;8072;52.554;7.966;2023-05-07T01:13:21;11.60;99.90
15947;DHT22;8072;52.554;7.966;2023-05-07T01:15:47;11.60;99.90
15947;DHT22;8072;52.554;7.966;2023-05-07T01:18:13;11.60;99.90
15947;DHT22;8072;52.554;7.966;2023-05-07T01:20:39;11.50;99.90
15947;DHT22;8072;52.554;7.966;2023-05-07T01:23:06;11.60;99.90
15947;DHT22;8072;52.554;7.966;2023-05-07T01:25:32;11.50;99.90
15947;DHT22;8072;52.554;7.966;2023-05-07T01:27:58;11.60;99.90
15947;DHT22;8072;52.554;7.966;2023-05-07T01:30:28;11.50;99.90
15947;DHT22;8072;52.554;7.966;2023-05-07T01:33:14;11.60;99.90
15947;DHT22;8072;52.554;7.966;2023-05-07T01:35:43;11.60;99.90
15947;DHT22;8072;52.554;7.966;2023-05-07T01:38:11;11.60;99.90
15947;DHT22;8072;52.554;7.966;2023-05-07T01:40:38;11.60;99.90
15947;DHT22;8072;52.554;7.966;2023-05-07T01:43:03;11.60;99.90
15947;DHT22;8072;52.554;7.966;2023-05-07T01:45:31;11.60;99.90
15947;DHT22;8072;52.554;7.966;2023-05-07T01:47:58;11.50;99.90
15947;DHT22;8072;52.554;7.966;2023-05-07T01:50:25;11.50;99.90
15947;DHT22;8072;52.554;7.966;2023-05-07T01:52:51;11.50;99.90
15947;DHT22;8072;52.554;7.966;2023-05-07T01:55:17;11.50;99.90
15947;DHT22;8072;52.554;7.966;2023-05-07T01:57:43;11.50;99.90
15947;DHT22;8072;52.554;7.966;2023-05-07T02:00:09;11.50;99.90
15947;DHT22;8072;52.554;7.966;2023-05-07T02:02:35;11.40;99.90
15947;DHT22;8072;52.554;7.966;2023-05-07T02:05:01;11.40;99.90
15947;DHT22;8072;52.554;7.966;2023-05-07T02:07:28;11.40;99.90
15947;DHT22;8072;52.554;7.966;2023-05-07T02:09:54;11.40;99.90
15947;DHT22;8072;52.554;7.966;2023-05-07T02:12:21;11.40;99.90
15947;DHT22;8072;52.554;7.966;2023-05-07T02:14:47;11.40;99.90
15947;DHT22;8072;52.554;7.966;2023-05-07T02:17:13;11.40;99.90
15947;DHT22;8072;52.554;7.966;2023-05-07T02:19:39;11.40;99.90
15947;DHT22;8072;52.554;7.966;2023-05-07T02:22:04;11.30;99.90
15947;DHT22;8072;52.554;7.966;2023-05-07T02:24:31;11.20;99.90
15947;DHT22;8072;52.554;7.966;2023-05-07T02:26:57;11.30;99.90
15947;DHT22;8072;52.554;7.966;2023-05-07T02:29:23;11.20;99.90
15947;DHT22;8072;52.554;7.966;2023-05-07T02:31:49;11.20;99.90
15947;DHT22;8072;52.554;7.966;2023-05-07T02:34:19;11.20;99.90
15947;DHT22;8072;52.554;7.966;2023-05-07T02:36:45;11.20;99.90
15947;DHT22;8072;52.554;7.966;2023-05-07T02:39:12;11.20;99.90
15947;DHT22;8072;52.554;7.966;2023-05-07T02:41:39;11.20;99.90
15947;DHT22;8072;52.554;7.966;2023-05-07T02:44:05;11.20;99.90
15947;DHT22;8072;52.554;7.966;2023-05-07T02:46:31;11.20;99.90
15947;DHT22;8072;52.554;7.966;2023-05-07T02:48:56;11.20;99.90
15947;DHT22;8072;52.554;7.966;2023-05-07T02:51:22;11.20;99.90
15947;DHT22;8072;52.554;7.966;2023-05-07T02:53:48;11.20;99.90
15947;DHT22;8072;52.554;7.966;2023-05-07T02:56:14;11.20;99.90
15947;DHT22;8072;52.554;7.966;2023-05-07T02:58:40;11.10;99.90
15947;DHT22;8072;52.554;7.966;2023-05-07T03:01:08;11.10;99.90
15947;DHT22;8072;52.554;7.966;2023-05-07T03:03:34;11.10;99.90
15947;DHT22;8072;52.554;7.966;2023-05-07T03:06:00;11.10;99.90
15947;DHT22;8072;52.554;7.966;2023-05-07T03:08:26;11.10;99.90
15947;DHT22;8072;52.554;7.966;2023-05-07T03:10:52;11.10;99.90
15947;DHT22;8072;52.554;7.966;2023-05-07T03:13:18;11.10;99.90
15947;DHT22;8072;52.554;7.966;2023-05-07T03:15:44;11.10;99.90
15947;DHT22;8072;52.554;7.966;2023-05-07T03:18:11;11.10;99.90
15947;DHT22;8072;52.554;7.966;2023-05-07T03:20:37;11.10;99.90
15947;DHT22;8072;52.554;7.966;2023-05-07T03:23:03;11.10;99.90
15947;DHT22;8072;52.554;7.966;2023-05-07T03:25:29;11.00;99.90
15947;DHT22;8072;52.554;7.966;2023-05-07T03:27:58;11.00;99.90
15947;DHT22;8072;52.554;7.966;2023-05-07T03:30:24;11.00;99.90
15947;DHT22;8072;52.554;7.966;2023-05-07T03:32:50;11.10;99.90
15947;DHT22;8072;52.554;7.966;2023-05-07T03:35:16;11.00;99.90
15947;DHT22;8072;52.554;7.966;2023-05-07T03:37:42;11.00;99.90
15947;DHT22;8072;52.554;7.966;2023-05-07T03:40:08;11.00;99.90
15947;DHT22;8072;52.554;7.966;2023-05-07T03:42:35;11.00;99.90
15947;DHT22;8072;52.554;7.966;2023-05-07T03:45:01;10.90;99.90
15947;DHT22;8072;52.554;7.966;2023-05-07T03:47:27;11.00;99.90
15947;DHT22;8072;52.554;7.966;2023-05-07T03:49:53;10.90;99.90
15947;DHT22;8072;52.554;7.966;2023-05-07T03:52:20;10.90;99.90
15947;DHT22;8072;52.554;7.966;2023-05-07T03:54:50;10.90;99.90
15947;DHT22;8072;52.554;7.966;2023-05-07T03:57:16;10.90;99.90
15947;DHT22;8072;52.554;7.966;2023-05-07T03:59:41;11.00;99.90
15947;DHT22;8072;52.554;7.966;2023-05-07T04:02:07;10.90;99.90
15947;DHT22;8072;52.554;7.966;2023-05-07T04:04:33;11.00;99.90
15947;DHT22;8072;52.554;7.966;2023-05-07T04:06:59;11.00;99.90
15947;DHT22;8072;52.554;7.966;2023-05-07T04:09:26;11.00;99.90
15947;DHT22;8072;52.554;7.966;2023-05-07T04:11:52;10.90;99.90
15947;DHT22;8072;52.554;7.966;2023-05-07T04:14:19;10.90;99.90
15947;DHT22;8072;52.554;7.966;2023-05-07T04:16:44;10.90;99.90
15947;DHT22;8072;52.554;7.966;2023-05-07T04:19:13;10.90;99.90
15947;DHT22;8072;52.554;7.966;2023-05-07T04:21:38;10.90;99.90
15947;DHT22;8072;52.554;7.966;2023-05-07T04:24:04;10.90;99.90
15947;DHT22;8072;52.554;7.966;2023-05-07T04:26:30;10.90;99.90
15947;DHT22;8072;52.554;7.966;2023-05-07T04:28:57;10.80;99.90
15947;DHT22;8072;52.554;7.966;2023-05-07T04:31:24;10.80;99.90
15947;DHT22;8072;52.554;7.966;2023-05-07T04:33:50;10.90;99.90
15947;DHT22;8072;52.554;7.966;2023-05-07T04:36:17;10.90;99.90
15947;DHT22;8072;52.554;7.966;2023-05-07T04:38:43;10.90;99.90
15947;DHT22;8072;52.554;7.966;2023-05-07T04:41:09;10.80;99.90
15947;DHT22;8072;52.554;7.966;2023-05-07T04:43:35;10.90;99.90
15947;DHT22;8072;52.554;7.966;2023-05-07T04:46:01;10.80;99.90
15947;DHT22;8072;52.554;7.966;2023-05-07T04:48:27;10.80;99.90
15947;DHT22;8072;52.554;7.966;2023-05-07T04:50:52;10.90;99.90
15947;DHT22;8072;52.554;7.966;2023-05-07T04:53:19;10.80;99.90
15947;DHT22;8072;52.554;7.966;2023-05-07T04:55:45;10.80;99.90
15947;DHT22;8072;52.554;7.966;2023-05-07T04:58:11;10.90;99.90
15947;DHT22;8072;52.554;7.966;2023-05-07T05:00:38;10.80;99.90
15947;DHT22;8072;52.554;7.966;2023-05-07T05:03:06;10.80;99.90
15947;DHT22;8072;52.554;7.966;2023-05-07T05:05:32;10.80;99.90
15947;DHT22;8072;52.554;7.966;2023-05-07T05:07:58;10.80;99.90
15947;DHT22;8072;52.554;7.966;2023-05-07T05:10:23;10.90;99.90
15947;DHT22;8072;52.554;7.966;2023-05-07T05:12:50;10.90;99.90
15947;DHT22;8072;52.554;7.966;2023-05-07T05:15:16;10.90;99.90
15947;DHT22;8072;52.554;7.966;2023-05-07T05:17:42;11.00;99.90
15947;DHT22;8072;52.554;7.966;2023-05-07T05:20:08;11.00;99.90
15947;DHT22;8072;52.554;7.966;2023-05-07T05:22:36;11.00;99.90
15947;DHT22;8072;52.554;7.966;2023-05-07T05:25:02;11.00;99.90
15947;DHT22;8072;52.554;7.966;2023-05-07T05:27:28;11.00;99.90
15947;DHT22;8072;52.554;7.966;2023-05-07T05:29:55;11.00;99.90
15947;DHT22;8072;52.554;7.966;2023-05-07T05:32:21;11.00;99.90
15947;DHT22;8072;52.554;7.966;2023-05-07T05:34:47;11.00;99.90
15947;DHT22;8072;52.554;7.966;2023-05-07T05:37:12;11.00;99.90
15947;DHT22;8072;52.554;7.966;2023-05-07T05:39:38;11.00;99.90
15947;DHT22;8072;52.554;7.966;2023-05-07T05:42:04;11.10;99.90
15947;DHT22;8072;52.554;7.966;2023-05-07T05:44:30;11.10;99.90
15947;DHT22;8072;52.554;7.966;2023-05-07T05:46:56;11.10;99.90
15947;DHT22;8072;52.554;7.966;2023-05-07T05:49:25;11.10;99.90
15947;DHT22;8072;52.554;7.966;2023-05-07T05:51:51;11.10;99.90
15947;DHT22;8072;52.554;7.966;2023-05-07T05:54:16;11.10;99.90
15947;DHT22;8072;52.554;7.966;2023-05-07T05:56:42;11.10;99.90
15947;DHT22;8072;52.554;7.966;2023-05-07T05:59:08;11.20;99.90
15947;DHT22;8072;52.554;7.966;2023-05-07T06:01:34;11.20;99.90
15947;DHT22;8072;52.554;7.966;2023-05-07T06:04:00;11.20;99.90
15947;DHT22;8072;52.554;7.966;2023-05-07T06:06:26;11.20;99.90
15947;DHT22;8072;52.554;7.966;2023-05-07T06:08:51;11.20;99.90
15947;DHT22;8072;52.554;7.966;2023-05-07T06:11:17;11.30;99.90
15947;DHT22;8072;52.554;7.966;2023-05-07T06:13:43;11.30;99.90
15947;DHT22;8072;52.554;7.966;2023-05-07T06:16:09;11.30;99.90
15947;DHT22;8072;52.554;7.966;2023-05-07T06:18:36;11.30;99.90
15947;DHT22;8072;52.554;7.966;2023-05-07T06:21:03;11.30;99.90
15947;DHT22;8072;52.554;7.966;2023-05-07T06:23:28;11.30;99.90
15947;DHT22;8072;52.554;7.966;2023-05-07T06:25:54;11.30;99.90
15947;DHT22;8072;52.554;7.966;2023-05-07T06:28:20;11.30;99.90
15947;DHT22;8072;52.554;7.966;2023-05-07T06:30:46;11.40;99.90
15947;DHT22;8072;52.554;7.966;2023-05-07T06:33:12;11.40;99.90
15947;DHT22;8072;52.554;7.966;2023-05-07T06:35:37;11.40;99.90
15947;DHT22;8072;52.554;7.966;2023-05-07T06:38:03;11.50;99.90
15947;DHT22;8072;52.554;7.966;2023-05-07T06:40:29;11.50;99.90
15947;DHT22;8072;52.554;7.966;2023-05-07T06:42:54;11.50;99.90
15947;DHT22;8072;52.554;7.966;2023-05-07T06:45:20;11.50;99.90
15947;DHT22;8072;52.554;7.966;2023-05-07T06:47:46;11.60;99.90
15947;DHT22;8072;52.554;7.966;2023-05-07T06:50:13;11.60;99.90
15947;DHT22;8072;52.554;7.966;2023-05-07T06:52:38;11.60;99.90
15947;DHT22;8072;52.554;7.966;2023-05-07T06:55:05;11.60;99.90
15947;DHT22;8072;52.554;7.966;2023-05-07T06:57:31;11.70;99.90
15947;DHT22;8072;52.554;7.966;2023-05-07T06:59:56;11.70;99.90
15947;DHT22;8072;52.554;7.966;2023-05-07T07:02:22;11.70;99.90
15947;DHT22;8072;52.554;7.966;2023-05-07T07:04:48;11.80;99.90
15947;DHT22;8072;52.554;7.966;2023-05-07T07:07:13;11.80;99.90
15947;DHT22;8072;52.554;7.966;2023-05-07T07:09:39;11.80;99.90
15947;DHT22;8072;52.554;7.966;2023-05-07T07:12:05;11.90;99.90
15947;DHT22;8072;52.554;7.966;2023-05-07T07:14:31;11.90;99.90
15947;DHT22;8072;52.554;7.966;2023-05-07T07:16:56;11.90;99.90
15947;DHT22;8072;52.554;7.966;2023-05-07T07:19:22;12.00;99.90
15947;DHT22;8072;52.554;7.966;2023-05-07T07:21:48;12.00;99.90
15947;DHT22;8072;52.554;7.966;2023-05-07T07:24:14;12.00;99.90
15947;DHT22;8072;52.554;7.966;2023-05-07T07:26:46;12.10;99.90
15947;DHT22;8072;52.554;7.966;2023-05-07T07:29:13;12.10;99.90
15947;DHT22;8072;52.554;7.966;2023-05-07T07:31:38;12.10;99.90
15947;DHT22;8072;52.554;7.966;2023-05-07T07:34:04;12.20;99.90
15947;DHT22;8072;52.554;7.966;2023-05-07T07:36:30;12.20;99.90
15947;DHT22;8072;52.554;7.966;2023-05-07T07:38:55;12.20;99.90
15947;DHT22;8072;52.554;7.966;2023-05-07T07:41:21;12.30;99.90
15947;DHT22;8072;52.554;7.966;2023-05-07T07:43:47;12.30;99.90
15947;DHT22;8072;52.554;7.966;2023-05-07T07:46:13;12.40;99.90
15947;DHT22;8072;52.554;7.966;2023-05-07T07:48:38;12.40;99.90
15947;DHT22;8072;52.554;7.966;2023-05-07T07:51:04;12.50;99.90
15947;DHT22;8072;52.554;7.966;2023-05-07T07:53:30;12.50;99.90
15947;DHT22;8072;52.554;7.966;2023-05-07T07:55:56;12.50;99.90
15947;DHT22;8072;52.554;7.966;2023-05-07T07:58:21;12.50;99.90
15947;DHT22;8072;52.554;7.966;2023-05-07T08:00:48;12.40;99.90
15947;DHT22;8072;52.554;7.966;2023-05-07T08:03:14;12.40;99.90
15947;DHT22;8072;52.554;7.966;2023-05-07T08:05:42;12.50;99.90
15947;DHT22;8072;52.554;7.966;2023-05-07T08:08:08;12.50;99.90
15947;DHT22;8072;52.554;7.966;2023-05-07T08:10:34;12.60;99.90
15947;DHT22;8072;52.554;7.966;2023-05-07T08:13:00;12.60;99.90
15947;DHT22;8072;52.554;7.966;2023-05-07T08:15:26;12.60;99.90
15947;DHT22;8072;52.554;7.966;2023-05-07T08:17:52;12.60;99.90
15947;DHT22;8072;52.554;7.966;2023-05-07T08:20:18;12.60;99.90
15947;DHT22;8072;52.554;7.966;2023-05-07T08:22:44;12.60;99.90
15947;DHT22;8072;52.554;7.966;2023-05-07T08:25:09;12.60;99.90
15947;DHT22;8072;52.554;7.966;2023-05-07T08:27:35;12.60;99.90
15947;DHT22;8072;52.554;7.966;2023-05-07T08:30:01;12.60;99.90
15947;DHT22;8072;52.554;7.966;2023-05-07T08:32:27;12.60;99.90
15947;DHT22;8072;52.554;7.966;2023-05-07T08:34:53;12.60;99.90
15947;DHT22;8072;52.554;7.966;2023-05-07T08:37:18;12.60;99.90
15947;DHT22;8072;52.554;7.966;2023-05-07T08:39:44;12.60;99.90
15947;DHT22;8072;52.554;7.966;2023-05-07T08:42:11;12.70;99.90
15947;DHT22;8072;52.554;7.966;2023-05-07T08:44:38;12.70;99.90
15947;DHT22;8072;52.554;7.966;2023-05-07T08:47:06;12.70;99.90
15947;DHT22;8072;52.554;7.966;2023-05-07T08:49:33;12.80;99.90
15947;DHT22;8072;52.554;7.966;2023-05-07T08:51:59;12.70;99.90
15947;DHT22;8072;52.554;7.966;2023-05-07T08:54:26;12.80;99.90
15947;DHT22;8072;52.554;7.966;2023-05-07T08:56:53;12.80;99.90
15947;DHT22;8072;52.554;7.966;2023-05-07T08:59:18;12.90;99.90
15947;DHT22;8072;52.554;7.966;2023-05-07T09:01:44;12.90;99.90
15947;DHT22;8072;52.554;7.966;2023-05-07T09:04:12;13.00;99.90
15947;DHT22;8072;52.554;7.966;2023-05-07T09:06:39;13.10;99.90
15947;DHT22;8072;52.554;7.966;2023-05-07T09:09:07;13.10;99.90
15947;DHT22;8072;52.554;7.966;2023-05-07T09:11:33;13.20;99.90
15947;DHT22;8072;52.554;7.966;2023-05-07T09:13:59;13.20;99.90
15947;DHT22;8072;52.554;7.966;2023-05-07T09:16:28;13.30;99.90
15947;DHT22;8072;52.554;7.966;2023-05-07T09:18:54;13.40;99.90
15947;DHT22;8072;52.554;7.966;2023-05-07T09:21:20;13.40;99.90
15947;DHT22;8072;52.554;7.966;2023-05-07T09:23:52;13.50;99.90
15947;DHT22;8072;52.554;7.966;2023-05-07T09:26:18;13.60;99.90
15947;DHT22;8072;52.554;7.966;2023-05-07T09:28:47;13.60;99.90
15947;DHT22;8072;52.554;7.966;2023-05-07T09:31:12;13.70;99.90
15947;DHT22;8072;52.554;7.966;2023-05-07T09:33:39;13.70;99.90
15947;DHT22;8072;52.554;7.966;2023-05-07T09:36:06;13.60;99.90
15947;DHT22;8072;52.554;7.966;2023-05-07T09:38:33;13.70;99.90
15947;DHT22;8072;52.554;7.966;2023-05-07T09:41:07;13.70;99.90
15947;DHT22;8072;52.554;7.966;2023-05-07T09:43:37;13.70;99.90
15947;DHT22;8072;52.554;7.966;2023-05-07T09:46:09;13.70;99.90
15947;DHT22;8072;52.554;7.966;2023-05-07T09:48:38;13.70;99.90
15947;DHT22;8072;52.554;7.966;2023-05-07T09:54:16;13.80;99.90
15947;DHT22;8072;52.554;7.966;2023-05-07T09:56:45;13.90;99.90
15947;DHT22;8072;52.554;7.966;2023-05-07T09:59:13;14.00;99.90
15947;DHT22;8072;52.554;7.966;2023-05-07T10:01:41;14.10;99.90
15947;DHT22;8072;52.554;7.966;2023-05-07T10:04:07;14.10;99.90
15947;DHT22;8072;52.554;7.966;2023-05-07T10:06:36;14.20;99.90
15947;DHT22;8072;52.554;7.966;2023-05-07T10:09:03;14.30;99.90
15947;DHT22;8072;52.554;7.966;2023-05-07T10:11:34;14.40;99.90
15947;DHT22;8072;52.554;7.966;2023-05-07T10:14:04;14.40;99.90
15947;DHT22;8072;52.554;7.966;2023-05-07T10:16:35;14.40;99.90
15947;DHT22;8072;52.554;7.966;2023-05-07T10:19:05;14.50;99.90
15947;DHT22;8072;52.554;7.966;2023-05-07T10:21:35;14.50;99.90
15947;DHT22;8072;52.554;7.966;2023-05-07T10:24:08;14.50;99.90
15947;DHT22;8072;52.554;7.966;2023-05-07T10:26:42;14.50;99.90
15947;DHT22;8072;52.554;7.966;2023-05-07T10:29:18;14.50;99.90
15947;DHT22;8072;52.554;7.966;2023-05-07T10:34:36;14.50;99.90
15947;DHT22;8072;52.554;7.966;2023-05-07T10:37:03;14.60;99.90
15947;DHT22;8072;52.554;7.966;2023-05-07T10:39:29;14.60;99.90
15947;DHT22;8072;52.554;7.966;2023-05-07T10:41:56;14.70;99.90
15947;DHT22;8072;52.554;7.966;2023-05-07T10:44:28;14.70;99.90
15947;DHT22;8072;52.554;7.966;2023-05-07T10:47:20;14.70;99.90
15947;DHT22;8072;52.554;7.966;2023-05-07T10:52:15;14.60;99.90
15947;DHT22;8072;52.554;7.966;2023-05-07T10:54:45;14.70;99.90
15947;DHT22;8072;52.554;7.966;2023-05-07T10:57:33;14.80;99.90
15947;DHT22;8072;52.554;7.966;2023-05-07T11:05:24;15.50;99.90
15947;DHT22;8072;52.554;7.966;2023-05-07T11:07:55;15.50;99.90
15947;DHT22;8072;52.554;7.966;2023-05-07T11:10:21;15.70;99.90
15947;DHT22;8072;52.554;7.966;2023-05-07T11:12:49;15.90;99.90
15947;DHT22;8072;52.554;7.966;2023-05-07T11:15:15;16.00;99.90
15947;DHT22;8072;52.554;7.966;2023-05-07T11:17:59;16.00;99.90
15947;DHT22;8072;52.554;7.966;2023-05-07T11:28:28;15.70;99.90
15947;DHT22;8072;52.554;7.966;2023-05-07T11:30:54;15.80;99.90
15947;DHT22;8072;52.554;7.966;2023-05-07T11:33:20;16.00;99.90
15947;DHT22;8072;52.554;7.966;2023-05-07T11:35:47;16.20;99.90
15947;DHT22;8072;52.554;7.966;2023-05-07T11:38:13;16.30;99.90
15947;DHT22;8072;52.554;7.966;2023-05-07T11:40:59;16.40;99.90
15947;DHT22;8072;52.554;7.966;2023-05-07T11:43:29;16.50;99.90
15947;DHT22;8072;52.554;7.966;2023-05-07T11:46:11;16.40;99.90
15947;DHT22;8072;52.554;7.966;2023-05-07T11:48:38;16.30;99.90
15947;DHT22;8072;52.554;7.966;2023-05-07T11:51:06;16.20;99.90
15947;DHT22;8072;52.554;7.966;2023-05-07T11:53:39;16.30;99.90
15947;DHT22;8072;52.554;7.966;2023-05-07T11:56:13;16.30;99.90
15947;DHT22;8072;52.554;7.966;2023-05-07T11:58:41;16.30;99.90
15947;DHT22;8072;52.554;7.966;2023-05-07T12:01:11;16.30;99.90
15947;DHT22;8072;52.554;7.966;2023-05-07T12:03:37;16.30;99.90
15947;DHT22;8072;52.554;7.966;2023-05-07T12:06:06;16.20;99.90
15947;DHT22;8072;52.554;7.966;2023-05-07T12:08:32;16.20;99.90
15947;DHT22;8072;52.554;7.966;2023-05-07T12:10:58;16.20;99.90
15947;DHT22;8072;52.554;7.966;2023-05-07T12:13:25;16.10;99.90
15947;DHT22;8072;52.554;7.966;2023-05-07T12:16:01;16.10;99.90
15947;DHT22;8072;52.554;7.966;2023-05-07T12:18:30;15.90;99.90
15947;DHT22;8072;52.554;7.966;2023-05-07T12:20:57;15.90;99.90
15947;DHT22;8072;52.554;7.966;2023-05-07T12:23:23;15.80;99.90
15947;DHT22;8072;52.554;7.966;2023-05-07T12:25:49;15.90;99.90
15947;DHT22;8072;52.554;7.966;2023-05-07T12:28:19;15.90;99.90
15947;DHT22;8072;52.554;7.966;2023-05-07T12:30:47;15.90;99.90
15947;DHT22;8072;52.554;7.966;2023-05-07T12:33:24;15.80;99.90
15947;DHT22;8072;52.554;7.966;2023-05-07T12:35:50;15.80;99.90
15947;DHT22;8072;52.554;7.966;2023-05-07T12:38:17;15.80;99.90
15947;DHT22;8072;52.554;7.966;2023-05-07T12:40:47;15.80;99.90
15947;DHT22;8072;52.554;7.966;2023-05-07T12:43:27;15.70;99.90
15947;DHT22;8072;52.554;7.966;2023-05-07T12:45:55;15.70;99.90
15947;DHT22;8072;52.554;7.966;2023-05-07T12:48:23;15.80;99.90
15947;DHT22;8072;52.554;7.966;2023-05-07T12:51:00;15.80;99.90
15947;DHT22;8072;52.554;7.966;2023-05-07T12:53:27;16.00;99.90
15947;DHT22;8072;52.554;7.966;2023-05-07T12:55:55;16.20;99.90
15947;DHT22;8072;52.554;7.966;2023-05-07T13:00:50;16.80;99.90
15947;DHT22;8072;52.554;7.966;2023-05-07T13:03:28;17.00;99.90
15947;DHT22;8072;52.554;7.966;2023-05-07T13:05:56;17.20;99.90
15947;DHT22;8072;52.554;7.966;2023-05-07T13:08:30;17.30;99.90
15947;DHT22;8072;52.554;7.966;2023-05-07T13:11:00;17.30;99.90
15947;DHT22;8072;52.554;7.966;2023-05-07T13:13:29;17.40;99.90
15947;DHT22;8072;52.554;7.966;2023-05-07T13:15:55;17.60;99.90
15947;DHT22;8072;52.554;7.966;2023-05-07T13:18:21;17.70;99.90
15947;DHT22;8072;52.554;7.966;2023-05-07T13:20:47;17.70;99.90
15947;DHT22;8072;52.554;7.966;2023-05-07T13:23:13;17.60;99.90
15947;DHT22;8072;52.554;7.966;2023-05-07T13:25:39;17.60;99.90
15947;DHT22;8072;52.554;7.966;2023-05-07T13:28:05;17.50;99.90
15947;DHT22;8072;52.554;7.966;2023-05-07T13:30:30;17.50;99.90
15947;DHT22;8072;52.554;7.966;2023-05-07T13:32:56;17.50;99.90
15947;DHT22;8072;52.554;7.966;2023-05-07T13:35:22;17.40;99.90
15947;DHT22;8072;52.554;7.966;2023-05-07T13:37:48;17.40;99.90
15947;DHT22;8072;52.554;7.966;2023-05-07T13:40:15;17.40;99.90
15947;DHT22;8072;52.554;7.966;2023-05-07T13:42:41;17.50;99.90
15947;DHT22;8072;52.554;7.966;2023-05-07T13:45:07;17.40;99.90
15947;DHT22;8072;52.554;7.966;2023-05-07T13:47:34;17.50;99.90
15947;DHT22;8072;52.554;7.966;2023-05-07T13:50:00;17.80;99.90
15947;DHT22;8072;52.554;7.966;2023-05-07T13:52:26;18.00;99.90
15947;DHT22;8072;52.554;7.966;2023-05-07T13:54:52;18.10;99.90
15947;DHT22;8072;52.554;7.966;2023-05-07T13:57:18;18.20;99.90
15947;DHT22;8072;52.554;7.966;2023-05-07T13:59:44;18.40;99.90
15947;DHT22;8072;52.554;7.966;2023-05-07T14:02:09;18.60;99.90
15947;DHT22;8072;52.554;7.966;2023-05-07T14:04:36;18.70;99.90
15947;DHT22;8072;52.554;7.966;2023-05-07T14:07:03;18.90;99.90
15947;DHT22;8072;52.554;7.966;2023-05-07T14:09:28;19.00;99.90
15947;DHT22;8072;52.554;7.966;2023-05-07T14:11:55;19.10;99.90
15947;DHT22;8072;52.554;7.966;2023-05-07T14:14:21;19.20;99.90
15947;DHT22;8072;52.554;7.966;2023-05-07T14:16:46;19.00;99.90
15947;DHT22;8072;52.554;7.966;2023-05-07T14:19:12;18.80;99.90
15947;DHT22;8072;52.554;7.966;2023-05-07T14:21:38;18.60;99.90
15947;DHT22;8072;52.554;7.966;2023-05-07T14:24:06;18.50;99.90
15947;DHT22;8072;52.554;7.966;2023-05-07T14:26:33;18.40;99.90
15947;DHT22;8072;52.554;7.966;2023-05-07T14:28:58;18.40;99.90
15947;DHT22;8072;52.554;7.966;2023-05-07T14:31:24;18.20;99.90
15947;DHT22;8072;52.554;7.966;2023-05-07T14:33:50;18.10;99.90
15947;DHT22;8072;52.554;7.966;2023-05-07T14:36:17;17.90;99.90
15947;DHT22;8072;52.554;7.966;2023-05-07T14:38:46;17.70;99.90
15947;DHT22;8072;52.554;7.966;2023-05-07T14:41:12;17.70;99.90
15947;DHT22;8072;52.554;7.966;2023-05-07T14:43:38;17.60;99.90
15947;DHT22;8072;52.554;7.966;2023-05-07T14:46:03;17.60;99.90
15947;DHT22;8072;52.554;7.966;2023-05-07T14:48:29;17.60;99.90
15947;DHT22;8072;52.554;7.966;2023-05-07T14:50:55;17.60;99.90
15947;DHT22;8072;52.554;7.966;2023-05-07T14:53:23;17.40;99.90
15947;DHT22;8072;52.554;7.966;2023-05-07T14:55:48;17.40;99.90
15947;DHT22;8072;52.554;7.966;2023-05-07T14:58:14;17.30;99.90
15947;DHT22;8072;52.554;7.966;2023-05-07T15:00:40;17.30;99.90
15947;DHT22;8072;52.554;7.966;2023-05-07T15:03:09;17.40;99.90
15947;DHT22;8072;52.554;7.966;2023-05-07T15:05:37;17.50;99.90
15947;DHT22;8072;52.554;7.966;2023-05-07T15:08:03;17.80;99.90
15947;DHT22;8072;52.554;7.966;2023-05-07T15:10:30;18.00;99.90
15947;DHT22;8072;52.554;7.966;2023-05-07T15:12:55;18.00;99.90
15947;DHT22;8072;52.554;7.966;2023-05-07T15:15:21;18.00;99.90
15947;DHT22;8072;52.554;7.966;2023-05-07T15:17:47;18.10;99.90
15947;DHT22;8072;52.554;7.966;2023-05-07T15:20:12;18.10;99.90
15947;DHT22;8072;52.554;7.966;2023-05-07T15:22:38;18.00;99.90
15947;DHT22;8072;52.554;7.966;2023-05-07T15:25:04;17.90;99.90
15947;DHT22;8072;52.554;7.966;2023-05-07T15:27:31;17.90;99.90
15947;DHT22;8072;52.554;7.966;2023-05-07T15:29:57;17.80;99.90
15947;DHT22;8072;52.554;7.966;2023-05-07T15:32:23;17.60;99.90
15947;DHT22;8072;52.554;7.966;2023-05-07T15:34:50;17.60;99.90
15947;DHT22;8072;52.554;7.966;2023-05-07T15:37:15;17.70;99.90
15947;DHT22;8072;52.554;7.966;2023-05-07T15:39:41;17.70;99.90
15947;DHT22;8072;52.554;7.966;2023-05-07T15:42:08;17.70;99.90
15947;DHT22;8072;52.554;7.966;2023-05-07T15:44:34;17.60;99.90
15947;DHT22;8072;52.554;7.966;2023-05-07T15:47:00;17.70;99.90
15947;DHT22;8072;52.554;7.966;2023-05-07T15:49:27;17.80;99.90
15947;DHT22;8072;52.554;7.966;2023-05-07T15:51:53;17.90;99.90
15947;DHT22;8072;52.554;7.966;2023-05-07T15:54:20;17.90;99.90
15947;DHT22;8072;52.554;7.966;2023-05-07T15:56:46;17.80;99.90
15947;DHT22;8072;52.554;7.966;2023-05-07T15:59:12;17.80;99.90
15947;DHT22;8072;52.554;7.966;2023-05-07T16:01:39;17.90;99.90
15947;DHT22;8072;52.554;7.966;2023-05-07T16:04:07;17.90;99.90
15947;DHT22;8072;52.554;7.966;2023-05-07T16:06:32;18.00;99.90